Flight Track Log - Related Links

Times and Time Zones

All times are in EST time to prevent confusion due to time zone crossing. See the FFT918 flight status page for this flight to view local times or setup timezone preferences in your user account.

Time Position Orientation Groundspeed Altitude Reporting Facility
EST Latitude Longitude Course Direction KTS MPH feet Rate Location/Type
Thu 06:33:08 PM 28.4333 -81.3000 41° Northeast 151 174 600  Level Orlando TRACON
Thu 06:33:38 PM 28.4500 -81.2833 41° Northeast 159 183 1,700 1,667 Climbing Orlando TRACON
Thu 06:34:38 PM 28.5000 -81.2667 16° North 219 252 3,100 1,950 Climbing Orlando TRACON
Thu 06:35:38 PM 28.5667 -81.2333 24° Northeast 276 318 5,600 2,465 Climbing Orlando TRACON
Thu 06:38:00 PM 28.7428 -81.2778 348° North 296 341 11,400 2,465 Climbing Jacksonville Center
Thu 06:39:00 PM 28.8331 -81.3094 343° North 311 358 13,900 2,650 Climbing Jacksonville Center
Thu 06:40:00 PM 28.9294 -81.3339 347° North 339 390 16,700 2,450 Climbing Jacksonville Center
Thu 06:41:00 PM 29.0258 -81.3658 344° North 350 403 18,800 1,900 Climbing Jacksonville Center
Thu 06:42:00 PM 29.1283 -81.3950 346° North 361 415 20,500 1,550 Climbing Jacksonville Center
Thu 06:43:00 PM 29.2433 -81.4028 357° North 385 443 21,900 1,400 Climbing Jacksonville Center
Thu 06:44:00 PM 29.3625 -81.4153 355° North 409 471 23,300 1,500 Climbing Jacksonville Center
Thu 06:45:00 PM 29.4961 -81.4300 355° North 432 497 24,900 1,500 Climbing Jacksonville Center
Thu 06:46:00 PM 29.6256 -81.4422 355° North 451 519 26,300 1,250 Climbing Jacksonville Center
Thu 06:47:00 PM 29.7572 -81.4547 355° North 462 532 27,400 1,250 Climbing Jacksonville Center
Thu 06:48:00 PM 29.8911 -81.4672 355° North 472 543 28,800 1,450 Climbing Jacksonville Center
Thu 06:49:00 PM 30.0250 -81.4819 355° North 478 550 30,300 1,500 Climbing Jacksonville Center
Thu 06:50:00 PM 30.1608 -81.4944 355° North 484 557 31,800 1,650 Climbing Jacksonville Center
Thu 06:51:00 PM 30.2842 -81.5069 355° North 477 549 33,600 1,250 Climbing Jacksonville Center
Thu 06:52:00 PM 30.3967 -81.5031 North 450 518 34,300 800 Climbing Jacksonville Center
Thu 06:53:00 PM 30.5261 -81.4964 North 450 518 35,200 1,250 Climbing Jacksonville Center
Thu 06:54:00 PM 30.6533 -81.4847 North 457 526 36,800 900 Climbing Jacksonville Center
Thu 06:55:00 PM 30.7764 -81.4756 North 457 526 37,000 100 Climbing Jacksonville Center
Thu 06:56:00 PM 30.9036 -81.4664 North 452 520 37,000  Level Jacksonville Center
Thu 06:57:00 PM 31.0289 -81.4572 North 452 520 37,000  Level Jacksonville Center
Thu 06:58:00 PM 31.1519 -81.4481 North 447 514 37,000  Level Jacksonville Center
Thu 06:59:00 PM 31.2792 -81.4317 North 447 514 37,000  Level Jacksonville Center
Thu 07:00:00 PM 31.4142 -81.3736 20° North 454 522 37,000  Level Jacksonville Center
Thu 07:01:00 PM 31.5344 -81.3033 26° Northeast 480 552 37,000  Level Jacksonville Center
Thu 07:02:00 PM 31.6464 -81.2381 26° Northeast 485 558 37,000  Level Jacksonville Center
Thu 07:03:00 PM 31.7789 -81.1600 27° Northeast 485 558 37,000  Level Jacksonville Center
Thu 07:04:00 PM 31.8928 -81.0917 27° Northeast 485 558 37,000  Level Jacksonville Center
Thu 07:05:00 PM 32.0128 -81.0206 27° Northeast 485 558 37,000  Level Jacksonville Center
Thu 07:06:00 PM 32.1494 -80.9419 26° Northeast 485 558 37,000  Level Jacksonville Center
Thu 07:07:00 PM 32.2592 -80.8756 27° Northeast 485 558 37,000  Level Jacksonville Center
Thu 07:08:00 PM 32.3892 -80.7964 27° Northeast 484 557 37,000 -50 Level Jacksonville Center
Thu 07:09:00 PM 32.4967 -80.7275 28° Northeast 484 557 36,900  Descending Jacksonville Center
Thu 07:10:00 PM 32.6186 -80.6556 26° Northeast 479 551 37,000 50 Climbing Jacksonville Center
Thu 07:11:00 PM 32.7364 -80.5836 27° Northeast 479 551 37,000 -50 Level Jacksonville Center
Thu 07:12:00 PM 32.8581 -80.5111 27° Northeast 479 551 36,900  Descending Jacksonville Center
Thu 07:13:00 PM 32.9881 -80.4333 27° Northeast 484 557 37,000 50 Climbing Jacksonville Center
Thu 07:14:00 PM 33.1056 -80.3608 27° Northeast 500 575 37,000  Level Jacksonville Center
Thu 07:15:00 PM 33.2375 -80.2825 26° Northeast 494 568 37,000  Level Jacksonville Center
Thu 07:16:00 PM 33.3550 -80.2069 28° Northeast 484 557 37,000  Level Jacksonville Center
Thu 07:17:00 PM 33.4767 -80.1336 27° Northeast 484 557 37,000  Level Jacksonville Center
Thu 07:18:00 PM 33.5958 -80.0575 28° Northeast 484 557 37,000 -50 Level Jacksonville Center
Thu 07:19:00 PM 33.7172 -79.9836 27° Northeast 484 557 36,900  Descending Jacksonville Center
Thu 07:20:00 PM 33.8325 -79.9100 28° Northeast 484 557 37,000 50 Climbing Jacksonville Center
Thu 07:21:00 PM 33.9539 -79.8356 27° Northeast 484 557 37,000  Level Jacksonville Center
Thu 07:22:00 PM 34.0708 -79.7614 28° Northeast 484 557 37,000  Level Jacksonville Center
Thu 07:23:00 PM 34.1900 -79.6844 28° Northeast 484 557 37,000  Level Jacksonville Center
Thu 07:25:00 PM 34.4189 -79.5594 24° Northeast 476 548 37,000  Level Washington Center
Thu 07:26:00 PM 34.5400 -79.4947 24° Northeast 470 541 37,000  Level Washington Center
Thu 07:27:01 PM 34.6611 -79.4300 24° Northeast 470 541 37,000  Level Washington Center
Thu 07:28:01 PM 34.7800 -79.3647 24° Northeast 465 535 37,000  Level Washington Center
Thu 07:29:02 PM 34.9031 -79.2994 24° Northeast 465 535 37,000  Level Washington Center
Thu 07:30:02 PM 35.0261 -79.2317 24° Northeast 465 535 37,000  Level Washington Center
Thu 07:31:00 PM 35.1511 -79.1661 23° Northeast 470 541 37,000 50 Level Washington Center
Thu 07:32:02 PM 35.2742 -79.1003 24° Northeast 470 541 37,100  Climbing Washington Center
Thu 07:33:00 PM 35.3972 -79.0344 24° Northeast 470 541 37,000 -51 Descending Washington Center
Thu 07:34:00 PM 35.5200 -78.9658 24° Northeast 470 541 37,000  Level Washington Center
Thu 07:35:01 PM 35.6431 -78.9019 23° Northeast 470 541 37,000  Level Washington Center
Thu 07:36:02 PM 35.7639 -78.8328 25° Northeast 470 541 37,000  Level Washington Center
Thu 07:37:02 PM 35.8844 -78.7633 25° Northeast 470 541 37,000  Level Washington Center
Thu 07:38:01 PM 36.0053 -78.6989 23° Northeast 470 541 37,000  Level Washington Center
Thu 07:39:02 PM 36.1258 -78.6317 24° Northeast 470 541 37,000  Level Washington Center
Thu 07:40:02 PM 36.2467 -78.5617 25° Northeast 470 541 37,000 50 Level Washington Center
Thu 07:41:02 PM 36.3714 -78.4939 24° Northeast 470 541 37,100  Climbing Washington Center
Thu 07:42:00 PM 36.4897 -78.4261 25° Northeast 470 541 37,000 -51 Descending Washington Center
Thu 07:43:00 PM 36.6103 -78.3528 26° Northeast 470 541 37,000  Level Washington Center
Thu 07:44:01 PM 36.7208 -78.2636 33° Northeast 475 547 37,000  Level Washington Center
Thu 07:45:02 PM 36.8356 -78.1792 30° Northeast 475 547 37,000 -268 Level Washington Center
Thu 07:47:00 PM 37.0664 -78.0047 31° Northeast 481 554 36,200 -607 Descending Washington Center
Thu 07:48:00 PM 37.1808 -77.9172 31° Northeast 476 548 35,200 -992 Descending Washington Center
Thu 07:49:01 PM 37.2950 -77.8319 31° Northeast 476 548 34,200 -934 Descending Washington Center
Thu 07:50:02 PM 37.4072 -77.7461 31° Northeast 476 548 33,300 -958 Descending Washington Center
Thu 07:51:00 PM 37.5192 -77.6631 30° Northeast 476 548 32,300 -1,008 Descending Washington Center
Thu 07:52:01 PM 37.6333 -77.5769 31° Northeast 476 548 31,300 -836 Descending Washington Center
Thu 07:53:02 PM 37.7453 -77.4906 31° Northeast 476 548 30,600 -942 Descending Washington Center
Thu 07:54:02 PM 37.8678 -77.3964 31° Northeast 476 548 29,400 -814 Descending Washington Center
Thu 07:55:00 PM 37.9753 -77.3119 32° Northeast 469 540 29,000 -504 Descending Washington Center
Thu 07:56:01 PM 38.0744 -77.2378 30° Northeast 462 532 28,400 -793 Descending Washington Center
Thu 07:57:01 PM 38.1903 -77.1478 31° Northeast 457 526 27,400 -992 Descending Washington Center
Thu 07:58:02 PM 38.2933 -77.0681 31° Northeast 445 512 26,400 -992 Descending Washington Center
Thu 07:59:02 PM 38.3839 -76.9983 31° Northeast 430 495 25,400 -1,000 Descending Washington Center
Thu 08:00:02 PM 38.4828 -76.9231 31° Northeast 424 488 24,400 -700 Descending Washington Center
Thu 08:01:02 PM 38.5794 -76.8478 31° Northeast 419 482 24,000 -203 Descending Washington Center
Thu 08:02:00 PM 38.6761 -76.7669 33° Northeast 408 470 24,000 -151 Level Washington Center
Thu 08:03:01 PM 38.7297 -76.6242 64° Northeast 403 464 23,700 -1,230 Descending Washington Center
Thu 08:04:02 PM 38.7622 -76.4675 75° East 420 483 21,500 -2,269 Descending Washington Center
Thu 08:05:00 PM 38.7944 -76.3081 75° East 439 505 19,200 -2,370 Descending Washington Center
Thu 08:06:01 PM 38.8286 -76.1567 74° East 444 511 16,800 -2,083 Descending Washington Center
Thu 08:07:01 PM 38.8606 -76.0075 75° East 438 504 15,000 -950 Descending Washington Center
Thu 08:08:01 PM 38.8900 -75.8636 75° East 425 489 14,900 -596 Descending Washington Center
Thu 08:09:52 PM 39.0333 -75.7000 42° Northeast 357 411 13,300 -737 Descending Philadelphia TRACON
Thu 08:10:52 PM 39.1333 -75.6667 14° North 299 344 12,800 -500 Descending Philadelphia TRACON
Thu 08:11:52 PM 39.2167 -75.6667 360° North 311 358 12,300 -400 Descending Philadelphia TRACON
Thu 08:12:52 PM 39.3000 -75.6500 North 320 368 12,000 -158 Descending Philadelphia TRACON
Thu 08:13:46 PM 39.3667 -75.5833 38° Northeast 314 361 12,000  Level Philadelphia TRACON
Thu 08:14:46 PM 39.4333 -75.5167 38° Northeast 321 369 12,000  Level Philadelphia TRACON
Thu 08:15:52 PM 39.5167 -75.4500 32° Northeast 323 372 12,000  Level Philadelphia TRACON
Thu 08:16:52 PM 39.5833 -75.3667 44° Northeast 323 372 12,000 -238 Level Philadelphia TRACON
Thu 08:17:58 PM 39.6667 -75.3000 32° Northeast 318 366 11,500 -700 Descending Philadelphia TRACON
Thu 08:18:52 PM 39.7333 -75.2333 38° Northeast 315 362 10,600 -789 Descending Philadelphia TRACON
Thu 08:19:52 PM 39.8000 -75.1667 38° Northeast 302 348 10,000 -300 Descending Philadelphia TRACON
Thu 08:20:52 PM 39.8500 -75.1000 46° Northeast 298 343 10,000 -450 Level Philadelphia TRACON
Thu 08:21:52 PM 39.9167 -75.0500 30° Northeast 253 291 9,100 -1,091 Descending Philadelphia TRACON
Thu 08:23:04 PM 39.9833 -74.9667 44° Northeast 248 285 7,600 -1,273 Descending Philadelphia TRACON
Thu 08:24:04 PM 40.0333 -74.9167 37° Northeast 239 275 6,300 -1,333 Descending Philadelphia TRACON
Thu 08:24:52 PM 40.0833 -74.8833 27° Northeast 234 269 5,200 -1,150 Descending Philadelphia TRACON
Thu 08:26:04 PM 40.1333 -74.8167 46° Northeast 220 253 4,000 -1,048 Descending Philadelphia TRACON
Thu 08:26:58 PM 40.1667 -74.7833 37° Northeast 189 217 3,000 -789 Descending Philadelphia TRACON
Thu 08:27:58 PM 40.2167 -74.7500 27° Northeast 174 200 2,500 -350 Descending Philadelphia TRACON
Thu 08:28:58 PM 40.2333 -74.7000 66° East 155 178 2,300 -300 Descending Philadelphia TRACON
Thu 08:29:58 PM 40.2833 -74.6667 27° Northeast 149 171 1,900 -300 Descending Philadelphia TRACON
Thu 08:30:58 PM 40.3167 -74.6833 339° North 117 135 1,700 -50 Descending Philadelphia TRACON
Thu 08:31:58 PM 40.3167 -74.7167 270° West 135 155 1,800 -286 Climbing Philadelphia TRACON
Thu 08:33:04 PM 40.3167 -74.7667 270° West 118 136 1,100 -636 Descending Philadelphia TRACON
Thu 08:35:00 PM 40.2767 -74.8135 222° Southwest  Level Estimated
Thu 08:42:00 PM 40.2767 -74.8135 339° North  Level Estimated

Login

Don't have an account? Register now (free) for customized features, flight alerts, and more!